Time;durP1;ratioP1;P1;durP2;ratioP2;P2;SDS_P1;SDS_P2;PMS_P1;PMS_P2;Temp;Humidity;BMP_temperature;BMP_pressure;BME280_temperature;BME280_humidity;BME280_pressure;Samples;Min_cycle;Max_cycle;Signal;HPM_P1;HPM_P2
2023/03/23 00:01:01;;;;;;;12.80;7.97;;;11.50;99.90;;;;;;4931967;29;20061;-48
2023/03/23 00:03:28;;;;;;;10.38;7.30;;;11.50;99.90;;;;;;4933081;29;20054;-51
2023/03/23 00:06:04;;;;;;;13.10;7.72;;;11.50;99.90;;;;;;4933064;29;20055;-46
2023/03/23 00:08:31;;;;;;;11.90;7.57;;;11.50;99.90;;;;;;4933408;29;20543;-52
2023/03/23 00:10:56;;;;;;;10.07;7.63;;;11.40;99.90;;;;;;4932153;29;20047;-47
2023/03/23 00:13:25;;;;;;;12.75;6.93;;;11.60;99.90;;;;;;4933300;29;20479;-48
2023/03/23 00:15:56;;;;;;;13.13;7.10;;;11.40;99.90;;;;;;4931867;29;20028;-51
2023/03/23 00:18:23;;;;;;;11.60;6.57;;;11.60;99.90;;;;;;4932849;29;20048;-50
2023/03/23 00:20:55;;;;;;;13.00;7.07;;;11.40;99.90;;;;;;4932964;29;20047;-47
2023/03/23 00:23:23;;;;;;;10.30;6.13;;;11.40;99.90;;;;;;4933049;29;20064;-49
2023/03/23 00:25:52;;;;;;;12.10;6.38;;;11.60;99.90;;;;;;4931721;29;20047;-47
2023/03/23 00:28:24;;;;;;;9.77;6.47;;;11.40;99.90;;;;;;4931492;29;20047;-49
2023/03/23 00:30:59;;;;;;;10.82;5.65;;;11.60;99.90;;;;;;4931911;29;20099;-51
2023/03/23 00:33:29;;;;;;;13.05;5.70;;;11.50;99.90;;;;;;4933241;29;20035;-47
2023/03/23 00:35:55;;;;;;;12.25;6.13;;;11.50;99.90;;;;;;4936713;29;20043;-48
2023/03/23 00:38:22;;;;;;;10.45;5.68;;;11.50;99.90;;;;;;4919661;29;20035;-47
2023/03/23 00:40:48;;;;;;;8.18;5.03;;;11.50;99.90;;;;;;4936721;29;20476;-46
2023/03/23 00:43:16;;;;;;;10.38;5.40;;;11.60;99.90;;;;;;4936296;29;20052;-45
2023/03/23 00:45:44;;;;;;;9.48;5.50;;;11.60;99.90;;;;;;4919139;29;20043;-45
2023/03/23 00:48:14;;;;;;;10.18;5.30;;;11.50;99.90;;;;;;4935575;29;20054;-47
2023/03/23 00:50:40;;;;;;;8.85;5.80;;;11.60;99.90;;;;;;4936507;29;20507;-47
2023/03/23 00:53:07;;;;;;;8.35;5.45;;;11.50;99.90;;;;;;4936100;29;20047;-47
2023/03/23 00:55:33;;;;;;;10.00;5.78;;;11.60;99.90;;;;;;4935000;29;20415;-47
2023/03/23 00:57:59;;;;;;;12.30;5.30;;;11.60;99.90;;;;;;4936448;29;20059;-48
2023/03/23 01:00:26;;;;;;;9.82;5.55;;;11.60;99.90;;;;;;4936263;29;20192;-47
2023/03/23 01:02:53;;;;;;;10.57;5.75;;;11.50;99.90;;;;;;4936211;29;20407;-48
2023/03/23 01:05:20;;;;;;;9.07;5.30;;;11.60;99.90;;;;;;4936181;29;20373;-49
2023/03/23 01:07:48;;;;;;;9.10;5.00;;;11.60;99.90;;;;;;4935772;29;20047;-50
2023/03/23 01:10:17;;;;;;;8.52;5.05;;;11.50;99.90;;;;;;4936091;29;20480;-51
2023/03/23 01:12:46;;;;;;;9.07;4.90;;;11.60;99.90;;;;;;4935669;29;20050;-48
2023/03/23 01:15:16;;;;;;;8.13;4.28;;;11.60;99.90;;;;;;4935945;29;20039;-49
2023/03/23 01:17:43;;;;;;;8.20;4.60;;;11.60;99.90;;;;;;4935171;29;20040;-52
2023/03/23 01:20:10;;;;;;;10.48;5.13;;;11.60;99.90;;;;;;4918886;29;20047;-51
2023/03/23 01:22:37;;;;;;;7.68;4.47;;;11.60;99.90;;;;;;4918826;29;20039;-46
2023/03/23 01:25:03;;;;;;;8.18;4.60;;;11.60;99.90;;;;;;4935541;29;20042;-49
2023/03/23 01:27:29;;;;;;;12.23;4.97;;;11.60;99.90;;;;;;4935602;29;20035;-48
2023/03/23 01:29:55;;;;;;;10.45;4.57;;;11.70;99.90;;;;;;4934385;29;20046;-49
2023/03/23 01:32:20;;;;;;;8.77;4.85;;;11.60;99.90;;;;;;4935703;29;20071;-50
2023/03/23 01:34:46;;;;;;;7.45;4.35;;;11.60;99.90;;;;;;4935677;29;20039;-52
2023/03/23 01:37:12;;;;;;;6.22;4.00;;;11.70;99.90;;;;;;4935878;29;20112;-47
2023/03/23 01:39:38;;;;;;;7.90;4.38;;;11.60;99.90;;;;;;4935193;29;20091;-48
2023/03/23 01:42:04;;;;;;;8.65;4.13;;;11.70;99.90;;;;;;4935778;29;20040;-47
2023/03/23 01:44:29;;;;;;;7.43;4.38;;;11.70;99.90;;;;;;4934122;29;20518;-48
2023/03/23 01:46:55;;;;;;;8.68;4.28;;;11.70;99.90;;;;;;4934744;29;20040;-46
2023/03/23 01:49:32;;;;;;;11.27;4.10;;;11.60;99.90;;;;;;4917886;29;20079;-48
2023/03/23 01:52:05;;;;;;;11.57;4.13;;;11.60;99.90;;;;;;4934812;29;20576;-49
2023/03/23 01:54:31;;;;;;;8.13;4.37;;;11.60;99.90;;;;;;4933867;29;20059;-49
2023/03/23 01:57:01;;;;;;;7.35;4.20;;;11.60;99.90;;;;;;4935250;29;20035;-50
2023/03/23 01:59:29;;;;;;;8.00;4.28;;;11.60;99.90;;;;;;4918120;29;20047;-50
2023/03/23 02:01:55;;;;;;;7.90;4.05;;;11.60;99.90;;;;;;4918186;29;20550;-48
2023/03/23 02:04:23;;;;;;;7.50;3.85;;;11.60;99.90;;;;;;4934772;29;20039;-50
2023/03/23 02:06:51;;;;;;;7.82;4.30;;;11.50;99.90;;;;;;4935259;29;20365;-46
2023/03/23 02:09:17;;;;;;;6.05;3.55;;;11.60;99.90;;;;;;4934811;29;20391;-47
2023/03/23 02:11:44;;;;;;;8.75;3.97;;;11.50;99.90;;;;;;4932395;29;20099;-46
2023/03/23 02:14:10;;;;;;;6.95;3.63;;;11.50;99.90;;;;;;4934801;29;20075;-48
2023/03/23 02:16:48;;;;;;;7.82;3.97;;;11.50;99.90;;;;;;4917848;29;20032;-47
2023/03/23 02:19:24;;;;;;;9.75;3.67;;;11.50;99.90;;;;;;4934216;29;20102;-50
2023/03/23 02:22:05;;;;;;;10.23;3.70;;;11.50;99.90;;;;;;4934561;29;20095;-46
2023/03/23 02:24:43;;;;;;;9.13;3.67;;;11.50;99.90;;;;;;4934601;29;20098;-45
2023/03/23 02:27:13;;;;;;;7.68;3.70;;;11.50;99.90;;;;;;4933109;29;20095;-50
2023/03/23 02:29:53;;;;;;;7.25;3.10;;;11.50;99.90;;;;;;4934617;29;20064;-48
2023/03/23 02:33:01;;;;;;;7.25;3.45;;;11.50;99.90;;;;;;4933313;29;20043;-50
2023/03/23 02:35:38;;;;;;;7.75;3.67;;;11.50;99.90;;;;;;4924219;29;20051;-51
2023/03/23 02:38:15;;;;;;;6.95;3.33;;;11.50;99.90;;;;;;4924629;29;20476;-51
2023/03/23 02:40:52;;;;;;;7.28;3.53;;;11.50;99.90;;;;;;4934321;29;20046;-50
2023/03/23 02:43:22;;;;;;;5.82;3.15;;;11.50;99.90;;;;;;4934681;29;20496;-48
2023/03/23 02:45:50;;;;;;;6.95;3.05;;;11.50;99.90;;;;;;4934160;29;20047;-52
2023/03/23 02:48:19;;;;;;;6.63;3.30;;;11.50;99.90;;;;;;4933451;29;20043;-51
2023/03/23 02:50:50;;;;;;;7.85;3.28;;;11.50;99.90;;;;;;4934070;29;20060;-49
2023/03/23 02:53:21;;;;;;;6.80;3.50;;;11.50;99.90;;;;;;4934093;29;20444;-51
2023/03/23 02:55:48;;;;;;;6.88;3.15;;;11.60;99.90;;;;;;4934225;29;20131;-49
2023/03/23 02:58:15;;;;;;;7.78;3.40;;;11.50;99.90;;;;;;4933114;29;20470;-52
2023/03/23 03:00:41;;;;;;;6.07;3.10;;;11.50;99.90;;;;;;4934105;29;20043;-51
2023/03/23 03:03:14;;;;;;;5.82;3.20;;;11.50;99.90;;;;;;4934184;29;20122;-51
2023/03/23 03:05:42;;;;;;;6.55;3.53;;;11.50;99.90;;;;;;4933787;29;20048;-49
2023/03/23 03:08:17;;;;;;;5.35;3.00;;;11.50;99.90;;;;;;4934137;29;20095;-48
2023/03/23 03:10:50;;;;;;;7.68;3.38;;;11.50;99.90;;;;;;4933836;29;20103;-49
2023/03/23 03:13:28;;;;;;;8.38;3.20;;;11.50;99.90;;;;;;4933791;29;20118;-51
2023/03/23 03:16:05;;;;;;;8.20;3.55;;;11.50;99.90;;;;;;4933708;29;20087;-49
2023/03/23 03:18:42;;;;;;;7.03;3.67;;;11.50;99.90;;;;;;4933639;29;20130;-47
2023/03/23 03:21:12;;;;;;;7.95;3.70;;;11.50;99.90;;;;;;4933770;29;20043;-46
2023/03/23 03:23:41;;;;;;;8.35;3.92;;;11.50;99.90;;;;;;4933982;29;20051;-49
2023/03/23 03:26:11;;;;;;;7.40;3.75;;;11.40;99.90;;;;;;4934010;29;20035;-49
2023/03/23 03:28:37;;;;;;;8.18;4.15;;;11.40;99.90;;;;;;4933381;29;20062;-49
2023/03/23 03:31:06;;;;;;;8.43;3.63;;;11.40;99.90;;;;;;4933822;29;20043;-50
2023/03/23 03:33:33;;;;;;;9.25;3.65;;;11.40;99.90;;;;;;4933595;29;20043;-49
2023/03/23 03:36:04;;;;;;;7.05;3.60;;;11.40;99.90;;;;;;4933508;29;20047;-50
2023/03/23 03:38:40;;;;;;;5.22;3.53;;;11.40;99.90;;;;;;4933758;29;20055;-48
2023/03/23 03:41:05;;;;;;;6.57;3.65;;;11.40;99.90;;;;;;4933398;29;20107;-51
2023/03/23 03:43:31;;;;;;;6.90;4.13;;;11.50;99.90;;;;;;4932741;29;20044;-51
2023/03/23 03:45:57;;;;;;;7.38;3.92;;;11.50;99.90;;;;;;4932048;29;20059;-49
2023/03/23 03:48:22;;;;;;;7.20;4.00;;;11.50;99.90;;;;;;4933329;29;20123;-45
2023/03/23 03:50:48;;;;;;;8.40;4.15;;;11.60;99.90;;;;;;4932947;29;20083;-48
2023/03/23 03:53:14;;;;;;;8.25;4.50;;;11.60;99.90;;;;;;4933637;29;20075;-49
2023/03/23 03:55:44;;;;;;;9.27;4.55;;;11.50;99.90;;;;;;4933170;29;20073;-46
2023/03/23 03:58:10;;;;;;;10.40;4.50;;;11.60;99.90;;;;;;4923981;29;20047;-47
2023/03/23 04:00:36;;;;;;;8.85;4.60;;;11.60;99.90;;;;;;4933447;29;20036;-46
2023/03/23 04:03:02;;;;;;;8.75;3.85;;;11.60;99.90;;;;;;4931251;29;20056;-45
2023/03/23 04:05:31;;;;;;;9.85;4.63;;;11.70;99.90;;;;;;4933161;29;20046;-49
2023/03/23 04:08:01;;;;;;;7.88;4.30;;;11.60;99.90;;;;;;4931395;29;20051;-50
2023/03/23 04:10:29;;;;;;;7.80;4.38;;;11.60;99.90;;;;;;4935128;29;20084;-49
2023/03/23 04:12:55;;;;;;;7.88;4.30;;;11.60;99.90;;;;;;4936943;29;20036;-46
2023/03/23 04:15:21;;;;;;;8.77;4.20;;;11.70;99.90;;;;;;4936922;29;20067;-48
2023/03/23 04:17:47;;;;;;;8.30;4.68;;;11.70;99.90;;;;;;4936538;29;20040;-47
2023/03/23 04:20:17;;;;;;;10.07;4.82;;;11.70;99.90;;;;;;4936861;29;20123;-46
2023/03/23 04:22:44;;;;;;;6.97;4.15;;;11.60;99.90;;;;;;4936859;29;20044;-47
2023/03/23 04:25:12;;;;;;;8.05;3.83;;;11.50;99.90;;;;;;4936941;29;20510;-48
2023/03/23 04:27:39;;;;;;;9.70;4.60;;;11.60;99.90;;;;;;4934847;29;20047;-48
2023/03/23 04:30:06;;;;;;;13.63;4.20;;;11.60;99.90;;;;;;4936232;29;20415;-48
2023/03/23 04:32:32;;;;;;;9.82;4.35;;;11.60;99.90;;;;;;4936612;29;20043;-53
2023/03/23 04:35:01;;;;;;;8.18;4.63;;;11.60;99.90;;;;;;4936961;29;20067;-50
2023/03/23 04:37:33;;;;;;;8.50;4.82;;;11.60;99.90;;;;;;4936492;29;20028;-50
2023/03/23 04:40:12;;;;;;;12.10;5.32;;;11.60;99.90;;;;;;4936657;29;20368;-51
2023/03/23 04:42:39;;;;;;;14.60;5.13;;;11.50;99.90;;;;;;4936590;29;20492;-51
2023/03/23 04:45:07;;;;;;;13.35;5.68;;;11.20;99.90;;;;;;4936587;29;20574;-47
2023/03/23 04:47:39;;;;;;;22.17;6.03;;;11.20;99.90;;;;;;4936200;29;20488;-48
2023/03/23 04:50:08;;;;;;;15.80;5.78;;;11.10;99.90;;;;;;4936392;29;20407;-49
2023/03/23 04:52:33;;;;;;;12.65;5.05;;;10.90;99.90;;;;;;4936187;29;20066;-50
2023/03/23 04:54:59;;;;;;;8.95;3.72;;;10.80;99.90;;;;;;4936365;29;20507;-48
2023/03/23 04:57:27;;;;;;;9.00;4.40;;;10.80;99.90;;;;;;4936567;29;20357;-49
2023/03/23 04:59:53;;;;;;;12.82;3.80;;;10.60;99.90;;;;;;4936355;29;20047;-48
2023/03/23 05:02:19;;;;;;;8.90;3.10;;;10.60;99.90;;;;;;4936134;29;20051;-48
2023/03/23 05:04:45;;;;;;;12.88;3.33;;;10.70;99.90;;;;;;4936233;29;20044;-48
2023/03/23 05:07:11;;;;;;;9.18;3.13;;;10.60;99.90;;;;;;4936302;29;20076;-50
2023/03/23 05:09:37;;;;;;;10.95;2.88;;;10.60;99.90;;;;;;4934660;29;20047;-46
2023/03/23 05:12:08;;;;;;;8.63;2.97;;;10.60;99.90;;;;;;4935863;29;20035;-46
2023/03/23 05:14:34;;;;;;;9.75;2.90;;;10.50;99.90;;;;;;4918903;29;20183;-48
2023/03/23 05:17:00;;;;;;;13.38;2.72;;;10.50;99.90;;;;;;4935847;29;20047;-47
2023/03/23 05:19:27;;;;;;;8.48;3.05;;;10.50;99.90;;;;;;4935747;29;20036;-47
2023/03/23 05:21:54;;;;;;;11.43;2.83;;;10.60;99.90;;;;;;4934836;29;20101;-49
2023/03/23 05:24:19;;;;;;;8.18;3.05;;;10.70;99.90;;;;;;4935915;29;20050;-47
2023/03/23 05:26:48;;;;;;;8.80;2.97;;;10.60;99.90;;;;;;4935522;29;20051;-45
2023/03/23 05:29:15;;;;;;;11.98;2.83;;;10.70;99.90;;;;;;4935815;29;20055;-46
2023/03/23 05:31:41;;;;;;;13.57;3.03;;;10.80;99.90;;;;;;4918375;29;20036;-47
2023/03/23 05:34:06;;;;;;;7.70;2.63;;;10.80;99.90;;;;;;4935580;29;20412;-47
2023/03/23 05:36:32;;;;;;;12.73;3.15;;;10.70;99.90;;;;;;4931863;29;20087;-45
2023/03/23 05:38:59;;;;;;;6.70;2.58;;;10.90;99.90;;;;;;4928021;29;20050;-45
2023/03/23 05:41:25;;;;;;;6.55;2.40;;;10.80;99.90;;;;;;4934027;29;20054;-47
2023/03/23 05:43:51;;;;;;;8.05;2.38;;;10.50;99.90;;;;;;4935464;29;20032;-46
2023/03/23 05:46:17;;;;;;;6.72;2.05;;;10.50;99.90;;;;;;4934133;29;20122;-48
2023/03/23 05:48:43;;;;;;;8.80;1.95;;;10.50;99.90;;;;;;4935041;29;20115;-48
2023/03/23 05:51:09;;;;;;;6.47;1.85;;;10.50;99.90;;;;;;4917719;29;20552;-48
2023/03/23 05:53:35;;;;;;;7.15;2.35;;;10.50;99.90;;;;;;4933004;29;20427;-47
2023/03/23 05:56:01;;;;;;;9.75;2.53;;;10.30;99.90;;;;;;4935004;29;20040;-49
2023/03/23 05:58:27;;;;;;;8.48;2.88;;;10.50;99.90;;;;;;4934180;29;20044;-46
2023/03/23 06:00:53;;;;;;;7.78;2.83;;;10.50;99.90;;;;;;4935014;29;20094;-48
2023/03/23 06:03:19;;;;;;;7.18;2.60;;;10.30;99.90;;;;;;4934830;29;20514;-47
2023/03/23 06:05:45;;;;;;;8.65;2.63;;;10.30;99.90;;;;;;4934969;29;20054;-46
2023/03/23 06:08:11;;;;;;;8.95;2.72;;;10.40;99.90;;;;;;4934991;29;20040;-46
2023/03/23 06:10:37;;;;;;;9.98;2.45;;;10.40;99.90;;;;;;4934799;29;20054;-49
2023/03/23 06:13:04;;;;;;;10.15;3.13;;;10.40;99.90;;;;;;4934944;29;20102;-48
2023/03/23 06:15:32;;;;;;;11.98;3.30;;;10.20;99.90;;;;;;4934755;29;20043;-51
2023/03/23 06:18:02;;;;;;;12.38;3.10;;;10.40;99.90;;;;;;4934311;29;20515;-51
2023/03/23 06:20:28;;;;;;;15.50;2.95;;;10.40;99.90;;;;;;4935085;29;20226;-51
2023/03/23 06:22:55;;;;;;;10.52;3.10;;;10.40;99.90;;;;;;4934829;29;20480;-51
2023/03/23 06:25:22;;;;;;;12.80;3.10;;;10.40;99.90;;;;;;4934617;29;20055;-47
2023/03/23 06:27:48;;;;;;;11.90;3.28;;;10.40;99.90;;;;;;4929155;29;20484;-51
2023/03/23 06:30:14;;;;;;;17.67;4.47;;;10.40;99.90;;;;;;4934498;29;20043;-47
2023/03/23 06:32:41;;;;;;;15.95;3.55;;;10.40;99.90;;;;;;4934785;29;20043;-49
2023/03/23 06:35:09;;;;;;;9.95;3.30;;;10.50;99.90;;;;;;4934375;29;20046;-48
2023/03/23 06:37:36;;;;;;;16.15;3.88;;;10.40;99.90;;;;;;4934177;29;20047;-46
2023/03/23 06:40:04;;;;;;;18.88;3.95;;;10.40;99.90;;;;;;4934318;29;20055;-47
2023/03/23 06:42:30;;;;;;;15.73;4.57;;;10.40;99.90;;;;;;4933077;29;20043;-45
2023/03/23 06:44:57;;;;;;;16.88;4.20;;;10.50;99.90;;;;;;4934273;29;20047;-47
2023/03/23 06:47:23;;;;;;;15.18;4.57;;;10.60;99.90;;;;;;4933772;29;20115;-47
2023/03/23 06:49:49;;;;;;;16.73;5.20;;;10.60;99.90;;;;;;4934273;29;20044;-47
2023/03/23 06:52:15;;;;;;;18.63;4.70;;;10.50;99.90;;;;;;4933844;29;20233;-47
2023/03/23 06:54:41;;;;;;;19.00;4.90;;;10.70;99.90;;;;;;4934257;29;20361;-48
2023/03/23 06:57:07;;;;;;;18.10;4.97;;;10.70;99.90;;;;;;4932845;29;20043;-45
2023/03/23 06:59:33;;;;;;;14.82;4.93;;;10.70;99.90;;;;;;4933928;29;20036;-48
2023/03/23 07:01:58;;;;;;;13.82;4.80;;;10.80;99.90;;;;;;4932635;29;20087;-52
2023/03/23 07:04:24;;;;;;;11.80;3.60;;;10.80;99.90;;;;;;4933763;29;20126;-50
2023/03/23 07:06:50;;;;;;;13.48;4.35;;;10.80;99.90;;;;;;4933870;29;20055;-48
2023/03/23 07:09:16;;;;;;;14.40;3.97;;;10.80;99.90;;;;;;4933498;29;20039;-48
2023/03/23 07:11:41;;;;;;;15.60;4.28;;;10.70;99.90;;;;;;4933774;29;20046;-48
2023/03/23 07:14:07;;;;;;;12.65;4.03;;;10.90;99.90;;;;;;4934259;29;20086;-47
2023/03/23 07:16:33;;;;;;;17.02;4.35;;;11.00;99.90;;;;;;4934004;29;20031;-49
2023/03/23 07:19:00;;;;;;;14.63;3.90;;;10.90;99.90;;;;;;4933088;29;20403;-49
2023/03/23 07:21:26;;;;;;;17.50;4.78;;;11.00;99.90;;;;;;4932403;29;20054;-48
2023/03/23 07:23:52;;;;;;;13.88;3.58;;;11.00;99.90;;;;;;4932261;29;20039;-49
2023/03/23 07:26:18;;;;;;;13.63;3.78;;;11.10;99.90;;;;;;4916480;29;20043;-50
2023/03/23 07:28:45;;;;;;;14.07;3.60;;;11.10;99.90;;;;;;4933660;29;20058;-47
2023/03/23 07:31:11;;;;;;;16.17;3.60;;;11.30;99.90;;;;;;4933826;29;20503;-51
2023/03/23 07:33:37;;;;;;;18.35;4.35;;;11.30;99.90;;;;;;4929018;29;20044;-47
2023/03/23 07:36:03;;;;;;;22.83;4.28;;;11.20;99.90;;;;;;4930234;29;20038;-50
2023/03/23 07:38:30;;;;;;;20.02;4.03;;;11.20;99.90;;;;;;4933579;29;20039;-52
2023/03/23 07:40:56;;;;;;;20.02;4.53;;;11.40;99.90;;;;;;4924412;29;20396;-51
2023/03/23 07:43:22;;;;;;;20.65;4.47;;;11.30;99.90;;;;;;4924392;29;20046;-49
2023/03/23 07:45:48;;;;;;;17.77;4.32;;;11.40;99.90;;;;;;4924203;29;20099;-47
2023/03/23 07:48:14;;;;;;;20.58;4.45;;;11.40;99.90;;;;;;4921954;29;20184;-48
2023/03/23 07:50:40;;;;;;;19.70;4.28;;;11.30;99.90;;;;;;4907963;29;20499;-45
2023/03/23 07:53:06;;;;;;;15.90;4.15;;;11.30;99.90;;;;;;4925683;29;20040;-49
2023/03/23 07:55:32;;;;;;;18.27;4.93;;;11.40;99.90;;;;;;4924678;29;20384;-49
2023/03/23 07:57:57;;;;;;;19.75;4.40;;;11.40;99.90;;;;;;4923950;29;20039;-48
2023/03/23 08:00:24;;;;;;;20.17;4.72;;;11.30;99.90;;;;;;4924852;29;20506;-49
2023/03/23 08:02:55;;;;;;;22.80;5.00;;;11.30;99.90;;;;;;4925178;29;20036;-49
2023/03/23 08:05:21;;;;;;;19.02;4.57;;;11.40;99.90;;;;;;4924166;29;20036;-49
2023/03/23 08:07:48;;;;;;;22.67;4.65;;;11.40;99.90;;;;;;4908030;29;20341;-50
2023/03/23 08:10:16;;;;;;;21.00;4.25;;;11.50;99.90;;;;;;4924214;29;20589;-51
2023/03/23 08:12:43;;;;;;;17.88;4.40;;;11.40;99.90;;;;;;4925467;29;20067;-48
2023/03/23 08:15:14;;;;;;;19.25;4.55;;;11.50;99.90;;;;;;4924428;29;20036;-50
2023/03/23 08:17:41;;;;;;;25.15;4.43;;;11.40;99.90;;;;;;4922424;29;20091;-52
2023/03/23 08:20:12;;;;;;;17.63;4.03;;;11.50;99.90;;;;;;4925076;29;20110;-47
2023/03/23 08:22:39;;;;;;;19.92;4.70;;;11.40;99.90;;;;;;4921694;29;20114;-48
2023/03/23 08:25:07;;;;;;;19.85;4.28;;;11.40;99.90;;;;;;4921394;29;20040;-47
2023/03/23 08:27:33;;;;;;;23.45;4.85;;;11.50;99.90;;;;;;4907357;29;20127;-48
2023/03/23 08:29:59;;;;;;;20.00;5.05;;;11.50;99.90;;;;;;4922696;29;20054;-50
2023/03/23 08:32:25;;;;;;;21.83;4.90;;;11.40;99.90;;;;;;4923114;29;20476;-49
2023/03/23 08:34:52;;;;;;;19.95;4.68;;;11.50;99.90;;;;;;4925210;29;20047;-48
2023/03/23 08:37:18;;;;;;;18.70;4.75;;;11.60;99.90;;;;;;4924926;29;20058;-50
2023/03/23 08:39:44;;;;;;;19.65;4.97;;;11.60;99.90;;;;;;4923668;29;20052;-48
2023/03/23 08:42:11;;;;;;;18.65;4.78;;;11.70;99.90;;;;;;4923699;29;20484;-46
2023/03/23 08:44:37;;;;;;;18.05;4.70;;;11.80;99.90;;;;;;4924306;29;20044;-48
2023/03/23 08:47:04;;;;;;;17.80;4.80;;;11.80;99.90;;;;;;4923992;29;20134;-49
2023/03/23 08:49:32;;;;;;;20.55;4.80;;;11.80;99.90;;;;;;4922503;29;20104;-50
2023/03/23 08:51:59;;;;;;;20.38;4.57;;;11.80;99.90;;;;;;4925021;29;20118;-47
2023/03/23 08:54:25;;;;;;;17.70;4.28;;;11.70;99.90;;;;;;4930179;28;20035;-50
2023/03/23 08:56:50;;;;;;;18.65;5.03;;;11.70;99.90;;;;;;4932052;29;20111;-47
2023/03/23 08:59:16;;;;;;;21.75;5.05;;;11.80;99.90;;;;;;4937049;29;20443;-47
2023/03/23 09:01:42;;;;;;;19.23;4.88;;;11.90;99.90;;;;;;4936345;29;20115;-49
2023/03/23 09:04:08;;;;;;;17.42;4.32;;;11.90;99.90;;;;;;4933402;29;20098;-49
2023/03/23 09:06:36;;;;;;;21.08;4.93;;;12.00;99.90;;;;;;4933013;29;20104;-49
2023/03/23 09:09:06;;;;;;;19.67;4.47;;;12.10;99.90;;;;;;4914580;29;20075;-49
2023/03/23 09:11:33;;;;;;;23.08;5.15;;;12.10;99.90;;;;;;4933579;29;20046;-48
2023/03/23 09:13:59;;;;;;;16.98;4.20;;;12.10;99.90;;;;;;4935742;29;20059;-50
2023/03/23 09:16:25;;;;;;;19.33;4.70;;;12.00;99.90;;;;;;4937201;29;20062;-50
2023/03/23 09:18:51;;;;;;;19.05;4.20;;;12.00;99.90;;;;;;4932172;29;20040;-46
2023/03/23 09:21:17;;;;;;;18.45;4.65;;;12.00;99.90;;;;;;4933466;29;20067;-50
2023/03/23 09:23:44;;;;;;;17.77;4.28;;;11.70;99.90;;;;;;4930412;29;20118;-47
2023/03/23 09:26:09;;;;;;;14.32;3.60;;;12.10;99.90;;;;;;4931478;29;20047;-50
2023/03/23 09:28:35;;;;;;;19.10;3.75;;;12.20;99.90;;;;;;4931737;29;20407;-47
2023/03/23 09:31:01;;;;;;;11.77;3.20;;;12.30;99.90;;;;;;4928954;29;20127;-51
2023/03/23 09:33:32;;;;;;;17.35;4.13;;;12.50;99.90;;;;;;4930884;29;20543;-50
2023/03/23 09:35:58;;;;;;;17.10;4.30;;;12.80;99.90;;;;;;4930731;29;20039;-48
2023/03/23 09:38:24;;;;;;;11.20;2.95;;;13.10;99.90;;;;;;4932061;29;20092;-47
2023/03/23 09:41:01;;;;;;;14.90;4.18;;;13.30;99.90;;;;;;4928582;29;20133;-49
2023/03/23 09:43:45;;;;;;;14.40;3.83;;;13.40;99.90;;;;;;4926733;29;20044;-49
2023/03/23 09:46:32;;;;;;;12.73;3.50;;;13.70;99.90;;;;;;4926873;29;20047;-47
2023/03/23 09:49:10;;;;;;;12.07;3.53;;;13.80;99.90;;;;;;4925187;29;20047;-48
2023/03/23 09:51:58;;;;;;;16.30;4.05;;;13.80;99.90;;;;;;4922909;29;20059;-49
2023/03/23 09:54:30;;;;;;;11.48;3.28;;;13.90;99.90;;;;;;4926314;29;20052;-49
2023/03/23 09:56:58;;;;;;;11.63;3.40;;;13.80;99.90;;;;;;4927279;29;20043;-46
2023/03/23 09:59:43;;;;;;;11.65;3.38;;;13.90;99.90;;;;;;4924857;29;20044;-47
2023/03/23 10:02:17;;;;;;;11.68;3.38;;;13.80;99.90;;;;;;4926921;29;20123;-47
2023/03/23 10:04:49;;;;;;;13.77;3.20;;;13.70;99.90;;;;;;4926130;29;20039;-46
2023/03/23 10:07:20;;;;;;;17.83;3.50;;;13.80;99.90;;;;;;4924924;29;20044;-45
2023/03/23 10:09:51;;;;;;;10.60;2.60;;;13.80;99.90;;;;;;4925630;29;20047;-45
2023/03/23 10:12:36;;;;;;;9.75;2.90;;;13.90;99.90;;;;;;4925450;29;20040;-46
2023/03/23 10:15:33;;;;;;;11.90;3.00;;;13.80;99.90;;;;;;4927320;29;20082;-47
2023/03/23 10:18:11;;;;;;;12.88;3.15;;;13.90;99.90;;;;;;4926915;29;20071;-48
2023/03/23 10:20:59;;;;;;;10.90;2.92;;;13.90;99.90;;;;;;4925152;29;20040;-47
2023/03/23 10:24:01;;;;;;;13.93;3.15;;;13.70;99.90;;;;;;4924558;29;20051;-51
2023/03/23 10:26:55;;;;;;;12.65;2.70;;;13.50;99.90;;;;;;4920590;29;20051;-50
2023/03/23 10:29:36;;;;;;;11.83;2.80;;;13.50;99.90;;;;;;4923898;29;20511;-48
2023/03/23 10:32:08;;;;;;;12.90;3.42;;;13.30;99.90;;;;;;4912576;29;20295;-47
2023/03/23 10:34:52;;;;;;;12.05;3.30;;;13.40;99.90;;;;;;4931222;29;20575;-52
2023/03/23 10:37:32;;;;;;;16.20;3.15;;;13.50;99.90;;;;;;4931907;29;20039;-46
2023/03/23 10:40:00;;;;;;;11.88;3.38;;;13.50;99.90;;;;;;4932394;29;20051;-46
2023/03/23 10:42:38;;;;;;;12.30;3.35;;;13.70;99.90;;;;;;4925146;29;20042;-50
2023/03/23 10:45:24;;;;;;;11.77;3.63;;;13.90;99.90;;;;;;4933885;29;20511;-50
2023/03/23 10:48:15;;;;;;;11.95;3.28;;;14.30;99.90;;;;;;4933995;29;20484;-48
2023/03/23 10:50:44;;;;;;;12.05;2.58;;;14.40;99.90;;;;;;4933905;29;20054;-49
2023/03/23 10:53:21;;;;;;;13.75;3.25;;;14.40;99.90;;;;;;4916752;29;20500;-47
2023/03/23 10:55:48;;;;;;;12.73;3.25;;;14.30;99.90;;;;;;4934375;29;20403;-49
2023/03/23 10:58:35;;;;;;;15.63;3.42;;;14.20;99.90;;;;;;4934089;29;20071;-45
2023/03/23 11:01:04;;;;;;;10.32;3.42;;;14.20;99.90;;;;;;4916697;29;20047;-48
2023/03/23 11:03:32;;;;;;;12.90;3.60;;;14.30;99.90;;;;;;4933822;29;20531;-50
2023/03/23 11:06:08;;;;;;;12.77;3.67;;;14.30;99.90;;;;;;4933779;29;20078;-47
2023/03/23 11:09:12;;;;;;;13.25;3.10;;;14.40;99.90;;;;;;4933950;29;20392;-50
2023/03/23 11:11:42;;;;;;;13.68;3.75;;;14.50;99.90;;;;;;4928782;29;20059;-51
2023/03/23 11:14:18;;;;;;;11.25;2.83;;;14.70;99.90;;;;;;4933714;29;20043;-50
2023/03/23 11:16:52;;;;;;;11.05;3.15;;;14.90;99.90;;;;;;4928910;29;20092;-50
2023/03/23 11:19:32;;;;;;;14.52;2.63;;;15.10;99.90;;;;;;4929403;29;20059;-50
2023/03/23 11:22:09;;;;;;;9.82;2.63;;;15.20;99.90;;;;;;4932630;29;20048;-48
2023/03/23 11:24:52;;;;;;;10.27;2.80;;;15.30;99.90;;;;;;4933439;29;20042;-47
2023/03/23 11:27:18;;;;;;;12.75;3.28;;;15.40;99.90;;;;;;4929147;29;20559;-46
2023/03/23 11:29:52;;;;;;;9.75;2.90;;;15.50;99.90;;;;;;4906110;29;20054;-46
2023/03/23 11:32:22;;;;;;;11.60;2.83;;;15.60;99.90;;;;;;4924144;29;20048;-45
2023/03/23 11:34:53;;;;;;;12.85;2.97;;;15.90;99.90;;;;;;4924639;29;20147;-49
2023/03/23 11:37:28;;;;;;;9.25;2.80;;;16.00;99.90;;;;;;4924945;29;20084;-48
2023/03/23 11:40:00;;;;;;;16.25;3.25;;;16.10;99.90;;;;;;4923300;29;20113;-48
2023/03/23 11:42:42;;;;;;;11.23;2.72;;;16.20;99.90;;;;;;4924153;29;20444;-46
2023/03/23 11:45:36;;;;;;;13.95;2.78;;;16.20;99.90;;;;;;4924100;29;20455;-49
2023/03/23 11:48:19;;;;;;;12.68;2.60;;;16.20;99.90;;;;;;4923478;29;20047;-50
2023/03/23 11:50:52;;;;;;;15.57;3.45;;;16.10;99.90;;;;;;4921625;29;20130;-49
2023/03/23 11:53:27;;;;;;;12.35;2.83;;;15.90;99.90;;;;;;4925760;29;20057;-48
2023/03/23 11:56:01;;;;;;;13.55;4.05;;;15.70;99.90;;;;;;4924862;29;20063;-49
2023/03/23 11:58:32;;;;;;;12.30;2.70;;;15.50;99.90;;;;;;4923709;29;20047;-49
2023/03/23 12:01:14;;;;;;;14.13;3.42;;;15.40;99.90;;;;;;4923717;29;20039;-48
2023/03/23 12:03:57;;;;;;;14.00;3.17;;;15.30;99.90;;;;;;4925559;29;20031;-47
2023/03/23 12:07:01;;;;;;;10.30;2.45;;;15.10;99.90;;;;;;4925694;29;20130;-49
2023/03/23 12:09:29;;;;;;;13.35;3.33;;;15.00;99.90;;;;;;4882127;29;20051;-46
2023/03/23 12:12:15;;;;;;;13.52;3.25;;;15.00;99.90;;;;;;4927156;29;20044;-47
2023/03/23 12:14:47;;;;;;;10.50;2.50;;;15.00;99.90;;;;;;4930667;29;20040;-46
2023/03/23 12:17:22;;;;;;;12.65;3.17;;;15.00;99.90;;;;;;4933329;29;20039;-47
2023/03/23 12:20:12;;;;;;;12.77;2.90;;;15.00;99.90;;;;;;4932660;29;20095;-44
2023/03/23 12:22:55;;;;;;;12.05;3.70;;;14.90;99.90;;;;;;4933233;29;20047;-49
2023/03/23 12:25:43;;;;;;;13.65;3.13;;;14.80;99.90;;;;;;4933257;29;20043;-49
2023/03/23 12:28:26;;;;;;;11.35;2.83;;;14.70;99.90;;;;;;4933199;29;20059;-46
2023/03/23 12:31:17;;;;;;;12.68;3.20;;;14.60;99.90;;;;;;4934657;28;20043;-49
2023/03/23 12:34:10;;;;;;;15.35;2.63;;;14.50;99.90;;;;;;4936748;29;20043;-47
2023/03/23 12:37:12;;;;;;;15.52;3.22;;;14.50;99.90;;;;;;4919408;29;20078;-47
2023/03/23 12:39:59;;;;;;;13.85;2.75;;;14.70;99.90;;;;;;4936659;29;20342;-47
2023/03/23 12:42:25;;;;;;;9.80;2.60;;;15.20;99.90;;;;;;4936714;29;20043;-51
2023/03/23 12:44:58;;;;;;;12.32;2.83;;;15.70;99.90;;;;;;4936278;29;20295;-50
2023/03/23 12:47:46;;;;;;;11.50;3.40;;;16.10;99.90;;;;;;4936800;29;20047;-49
2023/03/23 12:50:12;;;;;;;14.88;2.83;;;16.50;99.90;;;;;;4936231;29;20062;-47
2023/03/23 12:52:41;;;;;;;11.23;2.80;;;16.80;99.90;;;;;;4935267;29;20071;-47
2023/03/23 12:55:23;;;;;;;11.88;2.75;;;16.90;99.90;;;;;;4922851;29;20047;-49
2023/03/23 12:58:00;;;;;;;11.93;2.88;;;16.90;99.90;;;;;;4923268;29;20428;-48